Wetterdaten: Woche 07.03.16 - 13.03.16 (KW10)
Datum Zeit Temp. A. Feuchte A. Luftdruck Regen Wind Richtung Taupunkt Windchill Windben
07.03.2016 00:00 -0,8 C 94 % 1005,3 hPa 0,0 l/m 2,2 km/h (1 Bft) O-NO -1,6 C -0,8 C 5,4 km/h (1 Bft)
07.03.2016 01:00 -0,8 C 95 % 1005,2 hPa 0,0 l/m 2,2 km/h (1 Bft) O-NO -1,6 C -0,8 C 5,5 km/h (2 Bft)
07.03.2016 02:00 -1,0 C 95 % 1004,9 hPa 0,0 l/m 0,7 km/h (0 Bft) O -1,7 C -1,0 C 2,2 km/h (1 Bft)
07.03.2016 03:00 -1,1 C 95 % 1004,7 hPa 0,0 l/m 1,3 km/h (1 Bft) N-NO -1,9 C -1,1 C 3,4 km/h (1 Bft)
07.03.2016 04:00 -1,6 C 95 % 1004,5 hPa 0,0 l/m 1,8 km/h (1 Bft) O-NO -2,4 C -1,6 C 4,5 km/h (1 Bft)
07.03.2016 05:00 -2,0 C 95 % 1004,6 hPa 0,0 l/m 1,0 km/h (0 Bft) O-NO -2,7 C -2,0 C 3,3 km/h (1 Bft)
07.03.2016 06:00 -2,2 C 95 % 1004,8 hPa 0,0 l/m 0,6 km/h (0 Bft) O-NO -2,9 C -2,2 C 1,7 km/h (1 Bft)
07.03.2016 07:00 -3,5 C 95 % 1005,1 hPa 0,0 l/m 0,2 km/h (0 Bft) O-NO -4,2 C -3,5 C 1,6 km/h (1 Bft)
07.03.2016 08:00 -1,6 C 93 % 1005,3 hPa 0,3 l/m 0,7 km/h (0 Bft) O-NO -2,6 C -1,6 C 1,9 km/h (1 Bft)
07.03.2016 09:00 0,9 C 87 % 1005,2 hPa 0,8 l/m 1,6 km/h (1 Bft) NO -1,0 C 0,9 C 3,1 km/h (1 Bft)
07.03.2016 10:00 1,9 C 83 % 1004,9 hPa 0,8 l/m 3,9 km/h (1 Bft) NO -0,7 C 1,9 C 8,3 km/h (2 Bft)
07.03.2016 11:00 3,3 C 75 % 1004,8 hPa 1,0 l/m 3,8 km/h (1 Bft) NW -0,7 C 3,3 C 7,4 km/h (2 Bft)
07.03.2016 12:00 3,8 C 73 % 1004,6 hPa 0,3 l/m 3,7 km/h (1 Bft) NO -0,6 C 3,8 C 7,5 km/h (2 Bft)
07.03.2016 13:00 4,3 C 67 % 1004,2 hPa 0,0 l/m 3,9 km/h (1 Bft) N-NW -1,3 C 4,3 C 8,0 km/h (2 Bft)
07.03.2016 14:00 4,2 C 65 % 1003,8 hPa 0,0 l/m 4,5 km/h (1 Bft) NO -1,8 C 4,2 C 9,5 km/h (2 Bft)
07.03.2016 15:00 4,1 C 69 % 1003,8 hPa 0,0 l/m 4,0 km/h (1 Bft) NO -1,1 C 4,2 C 7,8 km/h (2 Bft)
07.03.2016 16:00 3,1 C 70 % 1003,7 hPa 0,0 l/m 2,0 km/h (1 Bft) NO -1,9 C 3,1 C 4,5 km/h (1 Bft)
07.03.2016 17:00 1,9 C 83 % 1004,2 hPa 0,0 l/m 2,2 km/h (1 Bft) O -0,7 C 1,9 C 5,1 km/h (1 Bft)
07.03.2016 18:00 0,8 C 88 % 1004,7 hPa 0,0 l/m 0,8 km/h (0 Bft) O -1,1 C 0,8 C 2,6 km/h (1 Bft)
07.03.2016 19:00 0,0 C 91 % 1005,3 hPa 0,0 l/m 0,1 km/h (0 Bft) O -1,2 C 0,0 C 0,7 km/h (0 Bft)
07.03.2016 20:00 -0,1 C 93 % 1006,0 hPa 0,0 l/m 0,2 km/h (0 Bft) O -1,1 C -0,1 C 1,2 km/h (1 Bft)
07.03.2016 21:00 0,1 C 93 % 1006,5 hPa 0,0 l/m 0,8 km/h (0 Bft) SW -1,0 C 0,1 C 2,6 km/h (1 Bft)
07.03.2016 22:00 -0,1 C 94 % 1007,0 hPa 0,0 l/m 0,4 km/h (0 Bft) S -0,9 C -0,1 C 2,1 km/h (1 Bft)
07.03.2016 23:00 -0,3 C 95 % 1007,4 hPa 0,0 l/m 0,3 km/h (0 Bft) SW -1,0 C -0,3 C 1,6 km/h (1 Bft)
08.03.2016 00:00 -0,4 C 95 % 1007,8 hPa 0,0 l/m 0,2 km/h (0 Bft) SW -1,1 C -0,4 C 1,5 km/h (1 Bft)
08.03.2016 01:00 -0,4 C 95 % 1008,5 hPa 0,0 l/m 0,6 km/h (0 Bft) SW -1,1 C -0,4 C 2,7 km/h (1 Bft)
08.03.2016 02:00 -0,6 C 95 % 1009,0 hPa 0,0 l/m 0,0 km/h (0 Bft) SW -1,3 C -0,6 C 0,5 km/h (0 Bft)
08.03.2016 03:00 -0,6 C 95 % 1009,4 hPa 0,0 l/m 0,1 km/h (0 Bft) SW -1,3 C -0,6 C 0,7 km/h (0 Bft)
08.03.2016 04:00 -0,6 C 95 % 1010,1 hPa 0,0 l/m 0,3 km/h (0 Bft) S -1,3 C -0,6 C 1,1 km/h (0 Bft)
08.03.2016 05:00 -0,7 C 94 % 1010,9 hPa 0,0 l/m 1,3 km/h (1 Bft) O-NO -1,5 C -0,7 C 3,2 km/h (1 Bft)
08.03.2016 06:00 -0,8 C 94 % 1011,6 hPa 0,0 l/m 1,2 km/h (1 Bft) O -1,7 C -0,8 C 2,9 km/h (1 Bft)
08.03.2016 07:00 -0,8 C 95 % 1012,7 hPa 0,0 l/m 0,5 km/h (0 Bft) O -1,6 C -0,8 C 2,4 km/h (1 Bft)
08.03.2016 08:00 -0,7 C 94 % 1013,7 hPa 0,0 l/m 1,1 km/h (1 Bft) O -1,6 C -0,7 C 3,5 km/h (1 Bft)
08.03.2016 09:00 -0,4 C 92 % 1014,3 hPa 0,0 l/m 1,7 km/h (1 Bft) O-NO -1,5 C -0,4 C 3,9 km/h (1 Bft)
08.03.2016 10:00 0,4 C 91 % 1015,1 hPa 1,3 l/m 1,6 km/h (1 Bft) O-NO -0,9 C 0,4 C 3,7 km/h (1 Bft)
08.03.2016 11:00 1,2 C 88 % 1015,7 hPa 1,0 l/m 2,7 km/h (1 Bft) O-NO -0,5 C 1,2 C 6,0 km/h (2 Bft)
08.03.2016 12:00 1,7 C 86 % 1016,0 hPa 0,0 l/m 4,4 km/h (1 Bft) O -0,4 C 1,6 C 8,6 km/h (2 Bft)
08.03.2016 13:00 1,6 C 85 % 1016,3 hPa 0,0 l/m 6,0 km/h (2 Bft) O-NO -0,6 C 1,4 C 13,6 km/h (3 Bft)
08.03.2016 14:00 2,3 C 82 % 1016,5 hPa 0,0 l/m 4,8 km/h (1 Bft) O -0,5 C 2,3 C 10,0 km/h (2 Bft)
08.03.2016 15:00 1,4 C 84 % 1016,8 hPa 0,0 l/m 3,5 km/h (1 Bft) O-NO -0,9 C 1,4 C 7,3 km/h (2 Bft)
08.03.2016 16:00 1,2 C 87 % 1017,1 hPa 0,0 l/m 2,2 km/h (1 Bft) O -0,8 C 1,2 C 6,1 km/h (2 Bft)
08.03.2016 17:00 0,8 C 87 % 1017,7 hPa 0,0 l/m 1,7 km/h (1 Bft) O-NO -1,1 C 0,8 C 3,6 km/h (1 Bft)
08.03.2016 18:00 -0,3 C 90 % 1018,2 hPa 0,0 l/m 0,8 km/h (0 Bft) O -1,7 C -0,3 C 2,0 km/h (1 Bft)
08.03.2016 19:00 -1,5 C 93 % 1018,9 hPa 0,0 l/m 0,1 km/h (0 Bft) O -2,5 C -1,5 C 0,7 km/h (0 Bft)
08.03.2016 20:00 -2,2 C 94 % 1019,5 hPa 0,0 l/m 0,0 km/h (0 Bft) O -3,1 C -2,2 C 0,4 km/h (0 Bft)
08.03.2016 21:00 -2,6 C 94 % 1019,7 hPa 0,0 l/m 0,1 km/h (0 Bft) O -3,4 C -2,6 C 0,8 km/h (0 Bft)
08.03.2016 22:00 -2,5 C 96 % 1019,7 hPa 0,0 l/m 0,2 km/h (0 Bft) O -3,0 C -2,5 C 1,2 km/h (1 Bft)
08.03.2016 23:00 -2,6 C 97 % 1019,0 hPa 0,0 l/m 1,2 km/h (1 Bft) O -3,1 C -2,6 C 3,3 km/h (1 Bft)
09.03.2016 00:00 -2,6 C 97 % 1018,6 hPa 0,0 l/m 1,7 km/h (1 Bft) O -3,0 C -2,6 C 3,6 km/h (1 Bft)
09.03.2016 01:00 -2,9 C 97 % 1017,6 hPa 0,0 l/m 1,1 km/h (1 Bft) NO -3,3 C -2,9 C 3,2 km/h (1 Bft)
09.03.2016 02:00 -3,4 C 97 % 1017,0 hPa 0,0 l/m 0,6 km/h (0 Bft) NO -3,8 C -3,4 C 1,8 km/h (1 Bft)
09.03.2016 03:00 -3,3 C 97 % 1016,3 hPa 0,0 l/m 1,0 km/h (0 Bft) N-NW -3,8 C -3,3 C 2,3 km/h (1 Bft)
09.03.2016 04:00 -3,6 C 96 % 1015,3 hPa 0,0 l/m 0,3 km/h (0 Bft) N-NW -4,1 C -3,6 C 1,6 km/h (1 Bft)
09.03.2016 05:00 -4,2 C 96 % 1014,5 hPa 0,0 l/m 0,5 km/h (0 Bft) N-NW -4,8 C -4,2 C 1,6 km/h (1 Bft)
09.03.2016 06:00 -5,0 C 96 % 1014,3 hPa 0,0 l/m 0,6 km/h (0 Bft) N-NW -5,6 C -5,0 C 1,8 km/h (1 Bft)
09.03.2016 07:00 -5,7 C 95 % 1013,9 hPa 0,0 l/m 0,5 km/h (0 Bft) O-NO -6,4 C -5,7 C 2,1 km/h (1 Bft)
09.03.2016 08:00 -3,4 C 96 % 1012,9 hPa 0,0 l/m 1,2 km/h (1 Bft) O -3,9 C -3,4 C 3,4 km/h (1 Bft)
09.03.2016 09:00 -1,7 C 93 % 1012,2 hPa 0,0 l/m 1,5 km/h (1 Bft) N-NW -2,7 C -1,7 C 3,8 km/h (1 Bft)
09.03.2016 10:00 -0,0 C 86 % 1011,0 hPa 0,0 l/m 3,2 km/h (1 Bft) W-NW -2,1 C -0,0 C 7,9 km/h (2 Bft)
09.03.2016 11:00 1,9 C 78 % 1009,5 hPa 0,0 l/m 4,0 km/h (1 Bft) NW -1,6 C 1,9 C 9,4 km/h (2 Bft)
09.03.2016 12:00 3,3 C 70 % 1008,5 hPa 0,0 l/m 4,8 km/h (1 Bft) W-NW -1,6 C 3,3 C 10,4 km/h (2 Bft)
09.03.2016 13:00 4,0 C 64 % 1007,5 hPa 0,0 l/m 5,4 km/h (1 Bft) N -2,2 C 3,9 C 12,4 km/h (2 Bft)
09.03.2016 14:00 3,7 C 64 % 1007,0 hPa 0,0 l/m 5,6 km/h (2 Bft) O-NO -2,5 C 3,4 C 12,4 km/h (2 Bft)
09.03.2016 15:00 3,8 C 63 % 1006,7 hPa 0,0 l/m 3,8 km/h (1 Bft) N-NO -2,4 C 3,8 C 8,6 km/h (2 Bft)
09.03.2016 16:00 4,1 C 64 % 1006,1 hPa 0,0 l/m 2,4 km/h (1 Bft) O-NO -2,1 C 4,1 C 5,3 km/h (1 Bft)
09.03.2016 17:00 3,2 C 69 % 1006,4 hPa 0,0 l/m 1,5 km/h (1 Bft) O -1,9 C 3,2 C 3,5 km/h (1 Bft)
09.03.2016 18:00 0,9 C 81 % 1006,7 hPa 0,0 l/m 0,2 km/h (0 Bft) O -2,0 C 0,9 C 0,8 km/h (0 Bft)
09.03.2016 19:00 -1,6 C 89 % 1007,4 hPa 0,0 l/m 0,2 km/h (0 Bft) O -3,1 C -1,6 C 1,2 km/h (1 Bft)
09.03.2016 20:00 -2,5 C 91 % 1008,0 hPa 0,0 l/m 0,1 km/h (0 Bft) O -3,7 C -2,5 C 0,4 km/h (0 Bft)
09.03.2016 21:00 -3,2 C 93 % 1008,4 hPa 0,0 l/m 0,0 km/h (0 Bft) O -4,2 C -3,2 C 0,1 km/h (0 Bft)
09.03.2016 22:00 -3,3 C 95 % 1009,1 hPa 0,0 l/m 0,1 km/h (0 Bft) O -4,0 C -3,3 C 0,7 km/h (0 Bft)
09.03.2016 23:00 -2,3 C 95 % 1009,6 hPa 0,0 l/m 0,3 km/h (0 Bft) O -3,0 C -2,3 C 0,8 km/h (0 Bft)
10.03.2016 00:00 -1,9 C 94 % 1009,8 hPa 0,0 l/m 0,2 km/h (0 Bft) O -2,8 C -1,9 C 1,1 km/h (1 Bft)
10.03.2016 01:00 -1,7 C 94 % 1010,4 hPa 0,0 l/m 0,2 km/h (0 Bft) O -2,5 C -1,7 C 1,5 km/h (1 Bft)
10.03.2016 02:00 -1,5 C 94 % 1010,9 hPa 0,0 l/m 0,0 km/h (0 Bft) O -2,3 C -1,5 C 0,6 km/h (0 Bft)
10.03.2016 03:00 -1,9 C 93 % 1011,3 hPa 0,0 l/m 0,0 km/h (0 Bft) O -2,8 C -1,9 C 0,5 km/h (0 Bft)
10.03.2016 04:00 -3,1 C 94 % 1012,1 hPa 0,0 l/m 0,1 km/h (0 Bft) O -3,8 C -3,1 C 0,7 km/h (0 Bft)
10.03.2016 05:00 -3,5 C 95 % 1013,3 hPa 0,0 l/m 0,1 km/h (0 Bft) O -4,1 C -3,5 C 0,8 km/h (0 Bft)
10.03.2016 06:00 -3,4 C 96 % 1013,9 hPa 0,0 l/m 0,0 km/h (0 Bft) O -4,0 C -3,4 C 0,3 km/h (0 Bft)
10.03.2016 07:00 -2,6 C 96 % 1014,9 hPa 0,0 l/m 0,1 km/h (0 Bft) O -3,2 C -2,6 C 0,7 km/h (0 Bft)
10.03.2016 08:00 -0,2 C 92 % 1015,6 hPa 0,0 l/m 0,9 km/h (0 Bft) O -1,4 C -0,2 C 2,3 km/h (1 Bft)
10.03.2016 09:00 2,8 C 80 % 1015,9 hPa 0,0 l/m 2,6 km/h (1 Bft) W-NW -0,3 C 2,8 C 5,7 km/h (2 Bft)
10.03.2016 10:00 5,5 C 65 % 1016,3 hPa 0,0 l/m 3,7 km/h (1 Bft) W -0,5 C 5,5 C 7,6 km/h (2 Bft)
10.03.2016 11:00 6,6 C 62 % 1016,7 hPa 0,0 l/m 3,4 km/h (1 Bft) S-SW -0,1 C 6,6 C 8,1 km/h (2 Bft)
10.03.2016 12:00 7,1 C 61 % 1016,8 hPa 0,0 l/m 3,4 km/h (1 Bft) W-SW 0,2 C 7,1 C 7,4 km/h (2 Bft)
10.03.2016 13:00 7,8 C 59 % 1017,0 hPa 0,0 l/m 3,1 km/h (1 Bft) W-NW 0,3 C 7,8 C 8,0 km/h (2 Bft)
10.03.2016 14:00 8,4 C 58 % 1017,1 hPa 0,0 l/m 3,2 km/h (1 Bft) NW 0,6 C 8,4 C 6,8 km/h (2 Bft)
10.03.2016 15:00 9,0 C 56 % 1017,3 hPa 0,0 l/m 2,5 km/h (1 Bft) S-SW 0,6 C 9,0 C 5,9 km/h (2 Bft)
10.03.2016 16:00 7,9 C 58 % 1017,8 hPa 0,0 l/m 2,9 km/h (1 Bft) NW 0,3 C 7,9 C 8,4 km/h (2 Bft)
10.03.2016 17:00 6,8 C 62 % 1018,4 hPa 0,0 l/m 2,8 km/h (1 Bft) NW 0,1 C 6,8 C 6,9 km/h (2 Bft)
10.03.2016 18:00 5,0 C 69 % 1018,9 hPa 0,0 l/m 0,9 km/h (0 Bft) O -0,2 C 5,0 C 2,6 km/h (1 Bft)
10.03.2016 19:00 1,7 C 82 % 1019,8 hPa 0,0 l/m 0,1 km/h (0 Bft) O -1,1 C 1,7 C 1,2 km/h (1 Bft)
10.03.2016 20:00 -0,2 C 88 % 1020,9 hPa 0,0 l/m 0,1 km/h (0 Bft) O -1,9 C -0,2 C 0,7 km/h (0 Bft)
10.03.2016 21:00 -0,5 C 91 % 1021,4 hPa 0,0 l/m 0,0 km/h (0 Bft) O -1,7 C -0,5 C 1,1 km/h (0 Bft)
10.03.2016 22:00 -0,7 C 91 % 1021,5 hPa 0,0 l/m 0,1 km/h (0 Bft) O -2,0 C -0,7 C 0,7 km/h (0 Bft)
10.03.2016 23:00 -1,7 C 93 % 1021,7 hPa 0,0 l/m 0,0 km/h (0 Bft) O -2,6 C -1,7 C 0,5 km/h (0 Bft)
11.03.2016 00:00 -1,8 C 94 % 1021,8 hPa 0,0 l/m 0,0 km/h (0 Bft) O -2,7 C -1,8 C 0,2 km/h (0 Bft)
11.03.2016 01:00 -2,2 C 94 % 1022,1 hPa 0,0 l/m 0,1 km/h (0 Bft) O -3,0 C -2,2 C 0,8 km/h (0 Bft)
11.03.2016 02:00 -2,7 C 95 % 1022,3 hPa 0,0 l/m 0,0 km/h (0 Bft) O -3,4 C -2,7 C 0,2 km/h (0 Bft)
11.03.2016 03:00 -3,1 C 95 % 1022,3 hPa 0,0 l/m 0,0 km/h (0 Bft) O -3,8 C -3,1 C 0,1 km/h (0 Bft)
11.03.2016 04:00 -3,5 C 95 % 1022,5 hPa 0,0 l/m 0,2 km/h (0 Bft) O -4,2 C -3,5 C 1,1 km/h (0 Bft)
11.03.2016 05:00 -3,7 C 95 % 1022,7 hPa 0,0 l/m 0,1 km/h (0 Bft) O -4,4 C -3,7 C 0,3 km/h (0 Bft)
11.03.2016 06:00 -3,9 C 96 % 1022,9 hPa 0,0 l/m 0,0 km/h (0 Bft) O -4,6 C -3,9 C 0,4 km/h (0 Bft)
11.03.2016 07:00 -3,7 C 96 % 1023,2 hPa 0,0 l/m 0,0 km/h (0 Bft) O -4,2 C -3,7 C 0,1 km/h (0 Bft)
11.03.2016 08:00 -1,8 C 96 % 1023,5 hPa 0,0 l/m 1,1 km/h (1 Bft) O -2,4 C -1,8 C 2,3 km/h (1 Bft)
11.03.2016 09:00 -0,4 C 95 % 1023,7 hPa 0,0 l/m 2,0 km/h (1 Bft) S-SW -1,2 C -0,4 C 5,0 km/h (1 Bft)
11.03.2016 10:00 1,3 C 90 % 1023,8 hPa 0,0 l/m 2,7 km/h (1 Bft) NW -0,2 C 1,3 C 7,5 km/h (2 Bft)
11.03.2016 11:00 3,1 C 82 % 1023,9 hPa 0,0 l/m 5,0 km/h (1 Bft) NW 0,3 C 3,1 C 11,6 km/h (2 Bft)
11.03.2016 12:00 2,2 C 84 % 1024,2 hPa 0,0 l/m 4,7 km/h (1 Bft) W-NW -0,2 C 2,2 C 10,9 km/h (2 Bft)
11.03.2016 13:00 2,8 C 82 % 1024,2 hPa 0,0 l/m 4,3 km/h (1 Bft) NW -0,0 C 2,8 C 12,0 km/h (2 Bft)
11.03.2016 14:00 3,9 C 78 % 1024,0 hPa 0,0 l/m 4,6 km/h (1 Bft) W-NW 0,5 C 3,8 C 10,1 km/h (2 Bft)
11.03.2016 15:00 4,4 C 77 % 1024,1 hPa 0,0 l/m 4,3 km/h (1 Bft) W-NW 0,7 C 4,4 C 9,8 km/h (2 Bft)
11.03.2016 16:00 4,9 C 77 % 1024,2 hPa 0,0 l/m 3,6 km/h (1 Bft) S-SW 1,2 C 4,9 C 10,9 km/h (2 Bft)
11.03.2016 17:00 4,8 C 77 % 1024,4 hPa 0,0 l/m 2,9 km/h (1 Bft) W-NW 1,2 C 4,8 C 8,3 km/h (2 Bft)
11.03.2016 18:00 4,6 C 79 % 1024,7 hPa 0,0 l/m 2,0 km/h (1 Bft) W 1,2 C 4,6 C 5,8 km/h (2 Bft)
11.03.2016 19:00 4,2 C 80 % 1025,3 hPa 0,0 l/m 1,8 km/h (1 Bft) W 1,0 C 4,2 C 5,2 km/h (1 Bft)
11.03.2016 20:00 4,0 C 80 % 1025,6 hPa 0,0 l/m 0,9 km/h (0 Bft) W-SW 0,8 C 4,0 C 3,3 km/h (1 Bft)
11.03.2016 21:00 3,9 C 80 % 1025,7 hPa 0,0 l/m 1,3 km/h (1 Bft) W-SW 0,8 C 3,9 C 4,1 km/h (1 Bft)
11.03.2016 22:00 3,7 C 80 % 1025,8 hPa 0,0 l/m 2,4 km/h (1 Bft) W 0,6 C 3,7 C 6,8 km/h (2 Bft)
11.03.2016 23:00 3,3 C 79 % 1025,7 hPa 0,0 l/m 2,6 km/h (1 Bft) SW 0,0 C 3,3 C 7,1 km/h (2 Bft)
12.03.2016 00:00 3,1 C 79 % 1025,7 hPa 0,0 l/m 2,8 km/h (1 Bft) W -0,1 C 3,1 C 7,7 km/h (2 Bft)
12.03.2016 01:00 2,7 C 80 % 1025,7 hPa 0,0 l/m 2,1 km/h (1 Bft) W-NW -0,4 C 2,7 C 6,7 km/h (2 Bft)
12.03.2016 02:00 2,3 C 80 % 1025,7 hPa 0,0 l/m 3,5 km/h (1 Bft) SW -0,7 C 2,3 C 8,4 km/h (2 Bft)
12.03.2016 03:00 2,0 C 81 % 1025,4 hPa 0,0 l/m 3,0 km/h (1 Bft) W -0,8 C 2,0 C 8,1 km/h (2 Bft)
12.03.2016 04:00 1,6 C 83 % 1025,0 hPa 0,0 l/m 2,9 km/h (1 Bft) W-NW -1,0 C 1,6 C 7,9 km/h (2 Bft)
12.03.2016 05:00 1,0 C 86 % 1025,2 hPa 0,0 l/m 1,7 km/h (1 Bft) W -1,2 C 1,0 C 4,7 km/h (1 Bft)
12.03.2016 06:00 0,9 C 87 % 1025,4 hPa 0,0 l/m 2,1 km/h (1 Bft) W-NW -1,1 C 0,9 C 5,1 km/h (1 Bft)
12.03.2016 07:00 0,8 C 87 % 1025,8 hPa 0,0 l/m 2,1 km/h (1 Bft) W -1,1 C 0,8 C 5,6 km/h (2 Bft)
12.03.2016 08:00 1,1 C 87 % 1026,3 hPa 0,0 l/m 2,5 km/h (1 Bft) NW -0,8 C 1,1 C 6,1 km/h (2 Bft)
12.03.2016 09:00 1,5 C 86 % 1026,5 hPa 0,0 l/m 2,8 km/h (1 Bft) NW -0,6 C 1,5 C 6,9 km/h (2 Bft)
12.03.2016 10:00 2,3 C 83 % 1026,7 hPa 0,0 l/m 3,9 km/h (1 Bft) W-NW -0,2 C 2,3 C 10,9 km/h (2 Bft)
12.03.2016 11:00 3,9 C 79 % 1026,6 hPa 0,0 l/m 4,2 km/h (1 Bft) W 0,6 C 3,9 C 11,0 km/h (2 Bft)
12.03.2016 12:00 4,7 C 76 % 1026,4 hPa 0,0 l/m 4,4 km/h (1 Bft) W-NW 0,9 C 4,7 C 10,1 km/h (2 Bft)
12.03.2016 13:00 6,0 C 70 % 1025,8 hPa 0,0 l/m 4,7 km/h (1 Bft) NW 1,1 C 6,0 C 12,2 km/h (2 Bft)
12.03.2016 14:00 6,3 C 68 % 1025,5 hPa 0,0 l/m 4,7 km/h (1 Bft) W 0,8 C 6,3 C 11,6 km/h (2 Bft)
12.03.2016 15:00 6,6 C 65 % 1025,5 hPa 0,0 l/m 4,0 km/h (1 Bft) W-SW 0,6 C 6,6 C 11,0 km/h (2 Bft)
12.03.2016 16:00 6,3 C 65 % 1025,6 hPa 0,0 l/m 4,4 km/h (1 Bft) W 0,2 C 6,3 C 12,8 km/h (3 Bft)
12.03.2016 17:00 5,2 C 71 % 1025,9 hPa 0,0 l/m 3,9 km/h (1 Bft) NW 0,3 C 5,2 C 10,6 km/h (2 Bft)
12.03.2016 18:00 4,6 C 72 % 1026,3 hPa 0,0 l/m 3,2 km/h (1 Bft) NW 0,0 C 4,6 C 7,4 km/h (2 Bft)
12.03.2016 19:00 4,0 C 74 % 1026,8 hPa 0,0 l/m 3,3 km/h (1 Bft) NW -0,2 C 4,0 C 9,4 km/h (2 Bft)
12.03.2016 20:00 3,5 C 76 % 1027,2 hPa 0,0 l/m 2,8 km/h (1 Bft) NW -0,2 C 3,5 C 6,8 km/h (2 Bft)
12.03.2016 21:00 3,2 C 77 % 1027,4 hPa 0,0 l/m 1,6 km/h (1 Bft) W-NW -0,4 C 3,2 C 4,1 km/h (1 Bft)
12.03.2016 22:00 2,6 C 79 % 1027,2 hPa 0,0 l/m 1,9 km/h (1 Bft) NW -0,7 C 2,6 C 4,5 km/h (1 Bft)
12.03.2016 23:00 2,1 C 80 % 1026,8 hPa 0,0 l/m 2,4 km/h (1 Bft) NW -0,9 C 2,1 C 5,4 km/h (2 Bft)
13.03.2016 00:00 1,8 C 82 % 1026,6 hPa 0,0 l/m 2,0 km/h (1 Bft) W-NW -1,0 C 1,8 C 4,5 km/h (1 Bft)
13.03.2016 01:00 1,6 C 83 % 1026,4 hPa 0,0 l/m 1,7 km/h (1 Bft) W-NW -1,0 C 1,6 C 3,8 km/h (1 Bft)
13.03.2016 02:00 1,4 C 84 % 1026,2 hPa 0,0 l/m 2,3 km/h (1 Bft) W-NW -0,9 C 1,4 C 4,6 km/h (1 Bft)
13.03.2016 03:00 1,4 C 86 % 1026,1 hPa 0,0 l/m 1,8 km/h (1 Bft) NW -0,7 C 1,4 C 4,8 km/h (1 Bft)
13.03.2016 04:00 1,6 C 88 % 1025,8 hPa 0,0 l/m 3,6 km/h (1 Bft) W-NW -0,1 C 1,6 C 9,3 km/h (2 Bft)
13.03.2016 05:00 1,5 C 90 % 1025,9 hPa 0,0 l/m 5,5 km/h (2 Bft) NW -0,0 C 1,3 C 13,7 km/h (3 Bft)
13.03.2016 06:00 1,3 C 89 % 1026,1 hPa 0,0 l/m 5,6 km/h (2 Bft) W-NW -0,3 C 1,1 C 14,4 km/h (3 Bft)
13.03.2016 07:00 1,0 C 89 % 1026,6 hPa 0,0 l/m 4,6 km/h (1 Bft) W-NW -0,7 C 1,0 C 13,7 km/h (3 Bft)
13.03.2016 08:00 1,1 C 89 % 1027,0 hPa 0,0 l/m 5,1 km/h (1 Bft) SW -0,5 C 1,1 C 13,8 km/h (3 Bft)
13.03.2016 09:00 1,3 C 88 % 1027,4 hPa 0,0 l/m 5,4 km/h (1 Bft) W-NW -0,5 C 0,9 C 11,1 km/h (2 Bft)
13.03.2016 10:00 1,7 C 87 % 1027,7 hPa 0,0 l/m 6,2 km/h (2 Bft) W -0,3 C 1,1 C 12,8 km/h (3 Bft)
13.03.2016 11:00 2,5 C 85 % 1027,8 hPa 0,0 l/m 5,7 km/h (2 Bft) W-NW 0,2 C 1,9 C 11,9 km/h (2 Bft)
13.03.2016 12:00 4,1 C 79 % 1027,7 hPa 0,0 l/m 6,9 km/h (2 Bft) W 0,8 C 3,2 C 16,6 km/h (3 Bft)
13.03.2016 13:00 5,2 C 75 % 1027,1 hPa 0,0 l/m 7,9 km/h (2 Bft) W-NW 1,1 C 3,9 C 21,6 km/h (4 Bft)
13.03.2016 14:00 6,0 C 72 % 1026,4 hPa 0,0 l/m 8,1 km/h (2 Bft) NW 1,2 C 4,6 C 19,9 km/h (4 Bft)
13.03.2016 15:00 5,8 C 71 % 1026,2 hPa 0,0 l/m 8,4 km/h (2 Bft) S-SW 1,0 C 4,2 C 18,6 km/h (3 Bft)
13.03.2016 16:00 5,2 C 74 % 1026,3 hPa 0,0 l/m 6,4 km/h (2 Bft) W 1,0 C 4,8 C 17,2 km/h (3 Bft)
13.03.2016 17:00 5,3 C 73 % 1026,5 hPa 0,0 l/m 6,2 km/h (2 Bft) W 0,8 C 4,9 C 16,0 km/h (3 Bft)
13.03.2016 18:00 5,1 C 74 % 1026,9 hPa 0,0 l/m 6,4 km/h (2 Bft) W-NW 0,9 C 4,5 C 15,6 km/h (3 Bft)
13.03.2016 19:00 4,8 C 76 % 1027,2 hPa 0,0 l/m 6,7 km/h (2 Bft) W-SW 0,9 C 4,3 C 20,8 km/h (4 Bft)
13.03.2016 20:00 4,7 C 73 % 1027,3 hPa 0,0 l/m 5,7 km/h (2 Bft) SW 0,2 C 4,5 C 14,3 km/h (3 Bft)
13.03.2016 21:00 4,5 C 72 % 1027,5 hPa 0,0 l/m 4,6 km/h (1 Bft) SW -0,0 C 4,4 C 11,9 km/h (2 Bft)
13.03.2016 22:00 4,2 C 77 % 1027,5 hPa 0,0 l/m 5,9 km/h (2 Bft) W 0,4 C 3,8 C 15,8 km/h (3 Bft)
13.03.2016 23:00 3,6 C 78 % 1027,3 hPa 0,0 l/m 5,8 km/h (2 Bft) SW 0,2 C 3,5 C 15,2 km/h (3 Bft)
Min-Datum _ 09.03.16 10.03.16 07.03.16 - 13.03.16 - 09.03.16 09.03.16 11.03.16
_ Min-Zeit 07:10 15:15 16:00 - 03:02 - 07:10 07:10 21:04
Minimum _ -5,9 C 52 % 1003,6 hPa - 0,0 km/h (0 Bft) - -6,7 C -5,9 C 0,0 km/h (0 Bft)
Max-Datum _ 10.03.16 09.03.16 13.03.16 08.03.16 13.03.16 - 13.03.16 10.03.16 13.03.16
_ Max-Zeit 15:10 08:15 11:05 10:20 10:56 - 14:05 15:10 19:55
Maximum _ 9,8 C 97 % 1027,9 hPa 1,3 l/m 12,9 km/h
W (3 Bft)
- 1,4 C 9,8 C 32,2 km/h
S-SW (5 Bft)
Durchschnitt _ 1,2 C 84 % 1017,7 hPa #5,3 l/m 2,4 km/h (1 Bft) O -1,3 C 1,2 C 6,0 km/h (2 Bft)